createdAt,value
2019-03-31T00:01:47.475Z,92.79
2019-03-31T00:04:15.983Z,93.68
2019-03-31T00:06:44.459Z,92.93
2019-03-31T00:09:12.951Z,93.24
2019-03-31T00:11:41.539Z,94.04
2019-03-31T00:14:10.026Z,94.30
2019-03-31T00:16:38.578Z,92.38
2019-03-31T00:19:07.197Z,92.23
2019-03-31T00:21:35.756Z,93.71
2019-03-31T00:24:04.281Z,94.53
2019-03-31T00:26:32.822Z,94.56
2019-03-31T00:29:01.320Z,93.74
2019-03-31T00:31:29.818Z,94.69
2019-03-31T00:33:58.324Z,95.93
2019-03-31T00:36:26.793Z,95.63
2019-03-31T00:38:55.300Z,94.22
2019-03-31T00:41:23.771Z,94.00
2019-03-31T00:43:52.274Z,93.45
2019-03-31T00:46:20.768Z,95.62
2019-03-31T00:48:49.233Z,97.97
2019-03-31T00:51:17.749Z,96.29
2019-03-31T00:53:46.226Z,94.12
2019-03-31T00:56:14.741Z,96.14
2019-03-31T00:58:43.320Z,96.14
2019-03-31T01:01:14.144Z,95.72
2019-03-31T01:03:42.625Z,96.69
2019-03-31T01:06:12.733Z,97.01
2019-03-31T01:08:41.212Z,95.76
2019-03-31T01:11:12.776Z,95.51
2019-03-31T01:13:41.351Z,95.50
2019-03-31T01:16:12.662Z,96.05
2019-03-31T01:18:41.400Z,97.10
2019-03-31T01:21:10.055Z,98.49
2019-03-31T01:23:38.582Z,99.75
2019-03-31T01:26:07.464Z,100.00
2019-03-31T01:28:36.014Z,100.00
2019-03-31T01:31:04.658Z,100.00
2019-03-31T01:33:33.219Z,99.90
2019-03-31T01:36:01.728Z,98.02
2019-03-31T01:38:30.285Z,95.64
2019-03-31T01:40:58.800Z,94.16
2019-03-31T01:43:27.280Z,92.87
2019-03-31T01:45:55.961Z,91.42
2019-03-31T01:48:24.435Z,92.06
2019-03-31T01:50:52.937Z,91.89
2019-03-31T01:53:21.416Z,91.60
2019-03-31T01:55:49.987Z,91.51
2019-03-31T01:58:18.468Z,91.91
2019-03-31T02:00:54.207Z,92.24
2019-03-31T02:03:22.753Z,92.80
2019-03-31T02:05:51.405Z,91.82
2019-03-31T02:08:20.063Z,88.80
2019-03-31T02:10:48.583Z,86.86
2019-03-31T02:13:17.062Z,85.74
2019-03-31T02:15:45.575Z,87.00
2019-03-31T02:18:14.061Z,87.71
2019-03-31T02:20:42.564Z,88.00
2019-03-31T02:23:11.105Z,88.98
2019-03-31T02:25:39.614Z,88.50
2019-03-31T02:28:08.093Z,87.13
2019-03-31T02:30:36.600Z,86.84
2019-03-31T02:33:05.088Z,87.46
2019-03-31T02:35:33.579Z,86.51
2019-03-31T02:38:02.061Z,85.78
2019-03-31T02:40:30.641Z,85.21
2019-03-31T02:42:59.192Z,85.59
2019-03-31T02:45:27.690Z,85.94
2019-03-31T02:47:56.164Z,85.75
2019-03-31T02:50:36.686Z,85.55
2019-03-31T02:53:05.165Z,85.85
2019-03-31T02:55:33.739Z,84.98
2019-03-31T02:58:02.355Z,85.12
2019-03-31T03:00:32.059Z,85.13
2019-03-31T03:03:01.969Z,85.00
2019-03-31T03:05:32.458Z,84.70
2019-03-31T03:08:01.821Z,85.08
2019-03-31T03:10:31.996Z,84.78
2019-03-31T03:13:01.979Z,85.03
2019-03-31T03:15:32.576Z,84.87
2019-03-31T03:18:01.053Z,84.34
2019-03-31T03:20:29.554Z,83.53
2019-03-31T03:22:58.034Z,83.13
2019-03-31T03:25:26.540Z,83.32
2019-03-31T03:27:55.023Z,82.93
2019-03-31T03:30:23.625Z,83.04
2019-03-31T03:33:13.313Z,81.35
2019-03-31T03:35:22.484Z,81.35
2019-03-31T03:37:50.952Z,80.39
2019-03-31T03:40:19.456Z,80.22
2019-03-31T03:42:47.944Z,80.32
2019-03-31T03:45:16.447Z,80.05
2019-03-31T03:47:44.942Z,80.12
2019-03-31T03:50:13.427Z,79.57
2019-03-31T03:52:41.928Z,79.23
2019-03-31T03:55:10.547Z,79.62
2019-03-31T03:57:39.062Z,79.76
2019-03-31T04:00:09.116Z,79.97
2019-03-31T04:02:37.621Z,79.15
2019-03-31T04:05:06.741Z,79.88
2019-03-31T04:07:35.261Z,80.11
2019-03-31T04:10:06.777Z,80.07
2019-03-31T04:12:35.278Z,79.76
2019-03-31T04:15:03.823Z,80.05
2019-03-31T04:17:32.321Z,80.27
2019-03-31T04:20:00.826Z,80.60
2019-03-31T04:22:29.330Z,80.58
2019-03-31T04:24:57.811Z,79.82
2019-03-31T04:27:26.334Z,79.77
2019-03-31T04:29:54.793Z,80.05
2019-03-31T04:32:23.309Z,80.98
2019-03-31T04:34:51.794Z,79.78
2019-03-31T04:37:20.287Z,80.05
2019-03-31T04:39:48.780Z,79.52
2019-03-31T04:42:17.279Z,78.64
2019-03-31T04:44:45.758Z,79.36
2019-03-31T04:47:14.270Z,81.09
2019-03-31T04:49:42.754Z,83.93
2019-03-31T04:52:11.252Z,83.31
2019-03-31T04:54:39.729Z,84.25
2019-03-31T04:57:08.242Z,85.63
2019-03-31T04:59:36.727Z,85.44
2019-03-31T05:02:05.226Z,83.77
2019-03-31T05:04:33.708Z,83.34
2019-03-31T05:07:02.210Z,81.91
2019-03-31T05:09:30.686Z,81.13
2019-03-31T05:11:59.189Z,80.49
2019-03-31T05:14:27.669Z,79.99
2019-03-31T05:16:56.173Z,79.83
2019-03-31T05:19:24.653Z,79.28
2019-03-31T05:21:53.157Z,79.60
2019-03-31T05:24:21.640Z,79.94
2019-03-31T05:26:50.141Z,80.72
2019-03-31T05:29:18.619Z,81.39
2019-03-31T05:31:47.133Z,81.98
2019-03-31T05:34:19.212Z,83.07
2019-03-31T05:36:45.836Z,84.55
2019-03-31T05:39:14.311Z,84.71
2019-03-31T05:41:42.821Z,83.80
2019-03-31T05:44:11.300Z,82.42
2019-03-31T05:46:39.812Z,83.92
2019-03-31T05:49:08.290Z,84.36
2019-03-31T05:51:36.823Z,84.83
2019-03-31T05:54:05.295Z,84.27
2019-03-31T05:56:33.814Z,84.04
2019-03-31T05:59:02.291Z,84.94
2019-03-31T06:01:30.793Z,85.31
2019-03-31T06:03:59.275Z,85.22
2019-03-31T06:06:27.786Z,85.43
2019-03-31T06:08:56.265Z,84.72
2019-03-31T06:11:24.769Z,84.45
2019-03-31T06:13:53.245Z,82.69
2019-03-31T06:16:21.722Z,83.16
2019-03-31T06:18:50.226Z,82.73
2019-03-31T06:21:18.698Z,79.81
2019-03-31T06:23:47.202Z,77.90
2019-03-31T06:26:15.682Z,78.59
2019-03-31T06:28:44.194Z,76.97
2019-03-31T06:31:12.681Z,76.73
2019-03-31T06:33:41.186Z,75.83
2019-03-31T06:36:09.669Z,75.65
2019-03-31T06:38:38.183Z,76.46
2019-03-31T06:41:06.738Z,75.69
2019-03-31T06:43:35.243Z,75.20
2019-03-31T06:46:03.735Z,76.03
2019-03-31T06:48:32.238Z,75.91
2019-03-31T06:51:00.724Z,74.99
2019-03-31T06:53:29.232Z,76.07
2019-03-31T06:55:57.717Z,75.48
2019-03-31T06:58:26.214Z,75.81
2019-03-31T07:00:54.688Z,77.38
2019-03-31T07:03:23.197Z,78.09
2019-03-31T07:05:51.764Z,76.69
2019-03-31T07:08:20.259Z,76.91
2019-03-31T07:10:48.734Z,76.96
2019-03-31T07:13:17.249Z,76.86
2019-03-31T07:15:45.732Z,77.05
2019-03-31T07:18:15.981Z,77.20
2019-03-31T07:20:44.591Z,77.26
2019-03-31T07:23:13.099Z,76.91
2019-03-31T07:25:41.586Z,76.61
2019-03-31T07:28:10.110Z,76.63
2019-03-31T07:30:38.605Z,76.41
2019-03-31T07:33:07.119Z,77.38
2019-03-31T07:35:38.812Z,76.05
2019-03-31T07:38:05.851Z,74.95
2019-03-31T07:40:34.335Z,75.14
2019-03-31T07:43:02.900Z,74.99
2019-03-31T07:45:31.405Z,75.68
2019-03-31T07:47:59.904Z,76.09
2019-03-31T07:50:28.535Z,73.89
2019-03-31T07:52:57.072Z,73.97
2019-03-31T07:55:25.560Z,73.94
2019-03-31T07:57:54.699Z,74.36
2019-03-31T08:00:25.476Z,75.36
2019-03-31T08:02:54.069Z,73.40
2019-03-31T08:05:33.030Z,72.52
2019-03-31T08:07:52.773Z,73.02
2019-03-31T08:10:21.492Z,72.49
2019-03-31T08:12:50.000Z,75.11
2019-03-31T08:15:19.050Z,74.36
2019-03-31T08:17:47.560Z,72.99
2019-03-31T08:20:18.636Z,75.35
2019-03-31T08:22:47.418Z,74.99
2019-03-31T08:25:16.740Z,72.80
2019-03-31T08:27:45.250Z,73.92
2019-03-31T08:30:15.085Z,72.28
2019-03-31T08:32:43.596Z,71.23
2019-03-31T08:35:13.618Z,70.41
2019-03-31T08:37:42.117Z,72.48
2019-03-31T08:40:11.844Z,71.35
2019-03-31T08:42:40.361Z,70.04
2019-03-31T08:45:10.119Z,69.81
2019-03-31T08:47:38.895Z,68.64
2019-03-31T08:50:08.234Z,68.67
2019-03-31T08:52:36.801Z,68.63
2019-03-31T08:55:06.429Z,69.09
2019-03-31T08:57:35.151Z,69.41
2019-03-31T09:00:05.303Z,68.51
2019-03-31T09:02:34.969Z,66.06
2019-03-31T09:05:04.705Z,66.10
2019-03-31T09:07:33.181Z,68.01
2019-03-31T09:10:01.769Z,65.46
2019-03-31T09:12:30.245Z,65.77
2019-03-31T09:14:58.753Z,64.85
2019-03-31T09:17:27.234Z,61.87
2019-03-31T09:19:55.812Z,62.09
2019-03-31T09:22:24.303Z,63.07
2019-03-31T09:24:52.817Z,61.75
2019-03-31T09:27:21.376Z,60.30
2019-03-31T09:29:49.892Z,58.13
2019-03-31T09:32:18.384Z,55.47
2019-03-31T09:34:46.971Z,53.23
2019-03-31T09:37:15.447Z,51.71
2019-03-31T09:39:43.962Z,54.57
2019-03-31T09:42:12.440Z,55.89
2019-03-31T09:44:40.955Z,59.56
2019-03-31T09:47:09.438Z,58.00
2019-03-31T09:49:37.943Z,58.34
2019-03-31T09:52:06.426Z,57.03
2019-03-31T09:54:34.932Z,61.85
2019-03-31T09:57:03.589Z,61.41
2019-03-31T09:59:32.090Z,60.98
2019-03-31T10:02:00.572Z,60.58
2019-03-31T10:04:29.075Z,59.61
2019-03-31T10:06:57.823Z,58.81
2019-03-31T10:09:26.407Z,59.29
2019-03-31T10:11:54.891Z,59.71
2019-03-31T10:14:23.396Z,59.85
2019-03-31T10:16:51.878Z,57.42
2019-03-31T10:19:20.391Z,60.05
2019-03-31T10:21:48.879Z,60.63
2019-03-31T10:24:17.390Z,60.88
2019-03-31T10:26:45.878Z,60.85
2019-03-31T10:29:14.386Z,61.81
2019-03-31T10:31:43.239Z,60.86
2019-03-31T10:34:11.753Z,60.78
2019-03-31T10:36:44.767Z,62.06
2019-03-31T10:39:10.544Z,60.43
2019-03-31T10:41:39.023Z,56.11
2019-03-31T10:44:07.535Z,56.42
2019-03-31T10:46:36.074Z,58.77
2019-03-31T10:49:04.722Z,59.94
2019-03-31T10:51:33.284Z,60.91
2019-03-31T10:54:04.472Z,57.86
2019-03-31T10:56:31.999Z,58.83
2019-03-31T10:59:00.503Z,59.41
2019-03-31T11:01:28.985Z,59.15
2019-03-31T11:03:57.565Z,60.75
2019-03-31T11:06:26.047Z,59.40
2019-03-31T11:08:54.635Z,60.16
2019-03-31T11:11:23.113Z,59.85
2019-03-31T11:13:51.619Z,61.26
2019-03-31T11:16:20.104Z,60.11
2019-03-31T11:18:48.603Z,60.97
2019-03-31T11:21:24.450Z,60.25
2019-03-31T11:23:52.954Z,60.57
2019-03-31T11:26:21.437Z,55.63
2019-03-31T11:28:49.950Z,56.80
2019-03-31T11:31:18.442Z,58.66
2019-03-31T11:33:46.919Z,60.31
2019-03-31T11:36:15.427Z,60.91
2019-03-31T11:38:43.906Z,59.34
2019-03-31T11:41:12.419Z,59.28
2019-03-31T11:43:40.893Z,60.79
2019-03-31T11:46:09.403Z,60.67
2019-03-31T11:48:37.959Z,61.59
2019-03-31T11:51:06.464Z,60.87
2019-03-31T11:53:34.942Z,61.10
2019-03-31T11:56:03.442Z,59.02
2019-03-31T11:58:32.461Z,60.65
2019-03-31T12:01:01.106Z,60.63
2019-03-31T12:03:31.141Z,62.39
2019-03-31T12:05:59.970Z,61.67
2019-03-31T12:08:28.521Z,60.83
2019-03-31T12:10:57.030Z,58.92
2019-03-31T12:13:25.509Z,60.23
2019-03-31T12:15:54.018Z,58.72
2019-03-31T12:18:22.496Z,57.39
2019-03-31T12:20:51.016Z,54.88
2019-03-31T12:23:19.486Z,55.92
2019-03-31T12:25:47.993Z,59.17
2019-03-31T12:28:16.474Z,59.64
2019-03-31T12:30:44.999Z,58.74
2019-03-31T12:33:13.478Z,60.44
2019-03-31T12:35:41.984Z,63.02
2019-03-31T12:38:10.528Z,61.99
2019-03-31T12:40:39.384Z,62.13
2019-03-31T12:43:07.934Z,61.79
2019-03-31T12:45:36.450Z,59.80
2019-03-31T12:48:05.069Z,61.68
2019-03-31T12:50:33.581Z,58.84
2019-03-31T12:53:02.061Z,60.04
2019-03-31T12:55:30.571Z,62.74
2019-03-31T12:57:59.054Z,59.88
2019-03-31T13:00:27.577Z,60.68
2019-03-31T13:02:56.114Z,59.73
2019-03-31T13:05:24.621Z,60.97
2019-03-31T13:07:56.608Z,61.79
2019-03-31T13:10:23.330Z,61.50
2019-03-31T13:12:51.810Z,61.77
2019-03-31T13:15:20.314Z,64.10
2019-03-31T13:17:48.803Z,61.92
2019-03-31T13:20:17.644Z,63.33
2019-03-31T13:22:46.995Z,63.55
2019-03-31T13:25:15.496Z,64.88
2019-03-31T13:27:43.977Z,63.91
2019-03-31T13:30:12.545Z,61.45
2019-03-31T13:32:41.021Z,62.15
2019-03-31T13:35:09.986Z,62.08
2019-03-31T13:37:38.453Z,63.42
2019-03-31T13:40:08.023Z,61.82
2019-03-31T13:42:36.575Z,60.57
2019-03-31T13:45:08.342Z,57.08
2019-03-31T13:47:36.829Z,56.67
2019-03-31T13:50:09.478Z,58.95
2019-03-31T13:52:38.021Z,60.19
2019-03-31T13:55:10.311Z,60.36
2019-03-31T13:57:40.033Z,62.45
2019-03-31T14:00:11.181Z,60.42
2019-03-31T14:02:40.526Z,63.12
2019-03-31T14:05:09.574Z,63.52
2019-03-31T14:07:38.052Z,64.50
2019-03-31T14:10:08.000Z,63.02
2019-03-31T14:12:36.477Z,64.12
2019-03-31T14:15:18.900Z,62.56
2019-03-31T14:17:38.474Z,62.05
2019-03-31T14:20:07.589Z,63.08
2019-03-31T14:22:36.097Z,62.28
2019-03-31T14:25:06.223Z,61.30
2019-03-31T14:27:34.725Z,61.01
2019-03-31T14:30:05.152Z,61.25
2019-03-31T14:32:33.663Z,60.80
2019-03-31T14:35:02.150Z,61.59
2019-03-31T14:37:30.663Z,62.48
2019-03-31T14:39:59.150Z,64.04
2019-03-31T14:42:27.672Z,63.10
2019-03-31T14:44:56.217Z,62.17
2019-03-31T14:47:24.721Z,63.90
2019-03-31T14:49:53.208Z,65.78
2019-03-31T14:52:27.471Z,67.44
2019-03-31T14:54:51.927Z,68.53
2019-03-31T14:57:20.430Z,67.69
2019-03-31T14:59:48.911Z,66.85
2019-03-31T15:02:17.419Z,67.63
2019-03-31T15:04:45.897Z,69.29
2019-03-31T15:07:14.407Z,69.10
2019-03-31T15:09:42.887Z,67.84
2019-03-31T15:12:11.385Z,67.88
2019-03-31T15:14:39.950Z,68.47
2019-03-31T15:17:08.471Z,68.32
2019-03-31T15:19:36.948Z,69.30
2019-03-31T15:22:05.453Z,69.50
2019-03-31T15:24:33.937Z,68.57
2019-03-31T15:27:02.444Z,69.18
2019-03-31T15:29:30.934Z,68.20
2019-03-31T15:31:59.428Z,69.44
2019-03-31T15:34:27.907Z,70.66
2019-03-31T15:36:56.415Z,69.99
2019-03-31T15:39:24.908Z,69.20
2019-03-31T15:41:53.410Z,68.77
2019-03-31T15:44:21.895Z,69.45
2019-03-31T15:46:50.405Z,70.28
2019-03-31T15:49:18.890Z,71.07
2019-03-31T15:51:47.391Z,70.27
2019-03-31T15:54:17.449Z,71.61
2019-03-31T15:56:46.031Z,69.92
2019-03-31T15:59:14.510Z,69.31
2019-03-31T16:01:43.089Z,69.52
2019-03-31T16:04:11.625Z,68.94
2019-03-31T16:06:40.098Z,68.21
2019-03-31T16:09:22.368Z,68.18
2019-03-31T16:11:52.875Z,68.78
2019-03-31T16:14:09.154Z,67.51
2019-03-31T16:16:37.652Z,68.21
2019-03-31T16:19:06.130Z,68.12
2019-03-31T16:21:34.639Z,67.96
2019-03-31T16:24:03.119Z,68.42
2019-03-31T16:26:31.626Z,69.09
2019-03-31T16:29:00.108Z,67.85
2019-03-31T16:31:28.661Z,68.48
2019-03-31T16:33:57.145Z,68.84
2019-03-31T16:36:25.656Z,67.96
2019-03-31T16:38:54.144Z,68.52
2019-03-31T16:41:22.641Z,68.64
2019-03-31T16:43:51.121Z,70.12
2019-03-31T16:46:19.642Z,71.12
2019-03-31T16:48:48.126Z,69.07
2019-03-31T16:51:16.612Z,67.64
2019-03-31T16:53:45.198Z,69.51
2019-03-31T16:56:13.678Z,68.46
2019-03-31T16:58:42.180Z,67.60
2019-03-31T17:01:10.662Z,68.12
2019-03-31T17:03:39.174Z,69.83
2019-03-31T17:06:07.655Z,70.77
2019-03-31T17:08:36.161Z,71.91
2019-03-31T17:11:05.589Z,72.46
2019-03-31T17:13:34.309Z,73.13
2019-03-31T17:16:02.859Z,72.62
2019-03-31T17:18:31.379Z,73.40
2019-03-31T17:20:59.872Z,75.63
2019-03-31T17:23:28.376Z,75.45
2019-03-31T17:25:56.856Z,75.39
2019-03-31T17:28:25.365Z,75.03
2019-03-31T17:30:53.845Z,75.42
2019-03-31T17:33:22.346Z,75.89
2019-03-31T17:35:50.820Z,74.85
2019-03-31T17:38:19.319Z,72.56
2019-03-31T17:40:47.798Z,74.58
2019-03-31T17:43:16.311Z,75.71
2019-03-31T17:45:44.788Z,74.64
2019-03-31T17:48:13.300Z,76.12
2019-03-31T17:50:41.777Z,76.79
2019-03-31T17:53:10.272Z,77.43
2019-03-31T17:55:38.749Z,77.94
2019-03-31T17:58:07.256Z,78.16
2019-03-31T18:00:35.736Z,77.49
2019-03-31T18:03:04.314Z,78.43
2019-03-31T18:05:32.791Z,77.82
2019-03-31T18:08:01.295Z,78.40
2019-03-31T18:10:29.781Z,78.54
2019-03-31T18:12:58.284Z,78.27
2019-03-31T18:15:26.759Z,78.57
2019-03-31T18:17:55.271Z,78.41
2019-03-31T18:20:23.752Z,80.06
2019-03-31T18:22:52.258Z,80.21
2019-03-31T18:25:20.754Z,80.23
2019-03-31T18:27:49.265Z,81.47
2019-03-31T18:30:18.183Z,82.28
2019-03-31T18:32:46.688Z,81.56
2019-03-31T18:35:16.937Z,82.38
2019-03-31T18:37:45.401Z,82.50
2019-03-31T18:40:14.039Z,82.12
2019-03-31T18:42:42.553Z,82.71
2019-03-31T18:45:11.176Z,82.84
2019-03-31T18:47:39.700Z,83.56
2019-03-31T18:50:08.448Z,84.91
2019-03-31T18:52:36.952Z,85.76
2019-03-31T18:55:24.370Z,84.29
2019-03-31T18:57:54.524Z,84.69
2019-03-31T19:00:24.656Z,85.97
2019-03-31T19:03:06.779Z,86.16
2019-03-31T19:05:53.917Z,85.82
2019-03-31T19:08:36.105Z,87.91
2019-03-31T19:11:15.544Z,88.14
2019-03-31T19:13:55.871Z,88.62
2019-03-31T19:16:35.305Z,88.86
2019-03-31T19:19:06.066Z,89.24
2019-03-31T19:21:52.712Z,89.90
2019-03-31T19:24:38.700Z,90.72
2019-03-31T19:27:14.567Z,90.17
2019-03-31T19:29:59.712Z,90.92
2019-03-31T19:32:38.948Z,91.13
2019-03-31T19:35:21.520Z,91.84
2019-03-31T19:37:54.637Z,92.65
2019-03-31T19:40:41.528Z,91.57
2019-03-31T19:43:18.151Z,91.42
2019-03-31T19:45:53.949Z,92.48
2019-03-31T19:48:40.809Z,92.51
2019-03-31T19:51:19.772Z,92.64
2019-03-31T19:53:59.368Z,93.32
2019-03-31T19:56:29.515Z,93.03
2019-03-31T19:59:15.863Z,93.22
2019-03-31T20:02:04.147Z,93.59
2019-03-31T20:04:34.290Z,93.42
2019-03-31T20:07:07.507Z,93.50
2019-03-31T20:09:53.850Z,94.08
2019-03-31T20:12:26.433Z,94.33
2019-03-31T20:15:13.449Z,94.92
2019-03-31T20:17:43.903Z,94.92
2019-03-31T20:20:19.821Z,94.77
2019-03-31T20:23:01.995Z,95.00
2019-03-31T20:25:32.296Z,94.51
2019-03-31T20:28:02.820Z,94.28
2019-03-31T20:30:41.774Z,94.95
2019-03-31T20:33:28.069Z,96.00
2019-03-31T20:36:14.064Z,96.00
2019-03-31T20:38:44.209Z,95.83
2019-03-31T20:41:32.540Z,97.09
2019-03-31T20:44:01.282Z,97.10
2019-03-31T20:46:29.760Z,97.10
2019-03-31T20:48:58.257Z,97.57
2019-03-31T20:51:26.735Z,97.11
2019-03-31T20:53:55.251Z,95.39
2019-03-31T20:56:23.747Z,95.71
2019-03-31T20:58:52.440Z,95.62
2019-03-31T21:01:20.914Z,96.73
2019-03-31T21:03:49.423Z,97.65
2019-03-31T21:06:17.962Z,97.40
2019-03-31T21:08:46.759Z,98.10
2019-03-31T21:11:15.242Z,98.69
2019-03-31T21:13:44.059Z,99.01
2019-03-31T21:16:12.535Z,99.67
2019-03-31T21:18:41.043Z,99.32
2019-03-31T21:21:09.515Z,98.74
2019-03-31T21:23:38.015Z,96.50
2019-03-31T21:26:06.494Z,95.06
2019-03-31T21:28:35.005Z,92.79
2019-03-31T21:31:03.473Z,90.80
2019-03-31T21:33:31.962Z,89.52
2019-03-31T21:36:00.432Z,88.67
2019-03-31T21:38:28.911Z,87.54
2019-03-31T21:40:57.414Z,86.98
2019-03-31T21:43:25.886Z,86.20
2019-03-31T21:45:54.381Z,85.88
2019-03-31T21:48:22.855Z,84.39
2019-03-31T21:50:51.347Z,84.61
2019-03-31T21:53:19.907Z,84.09
2019-03-31T21:55:48.405Z,83.70
2019-03-31T21:58:16.873Z,83.49
2019-03-31T22:00:55.584Z,83.17
2019-03-31T22:03:24.054Z,82.94
2019-03-31T22:05:52.692Z,82.63
2019-03-31T22:08:21.160Z,82.68
2019-03-31T22:10:49.660Z,82.62
2019-03-31T22:13:18.134Z,83.57
2019-03-31T22:15:47.041Z,83.29
2019-03-31T22:18:15.829Z,83.21
2019-03-31T22:20:47.331Z,83.06
2019-03-31T22:23:14.664Z,83.22
2019-03-31T22:25:43.173Z,83.58
2019-03-31T22:28:11.646Z,83.18
2019-03-31T22:30:40.136Z,84.13
2019-03-31T22:33:08.617Z,84.45
2019-03-31T22:35:37.113Z,84.00
2019-03-31T22:38:05.589Z,83.79
2019-03-31T22:40:34.097Z,84.24
2019-03-31T22:43:02.567Z,84.12
2019-03-31T22:45:31.070Z,83.77
2019-03-31T22:47:59.545Z,83.81
2019-03-31T22:50:28.048Z,84.45
2019-03-31T22:52:56.520Z,84.34
2019-03-31T22:55:25.015Z,84.41
2019-03-31T22:57:53.488Z,85.17
2019-03-31T23:00:23.767Z,84.26
2019-03-31T23:02:52.236Z,85.30
2019-03-31T23:05:20.741Z,86.17
2019-03-31T23:07:49.210Z,85.64
2019-03-31T23:10:17.707Z,84.81
2019-03-31T23:12:46.180Z,84.62
2019-03-31T23:15:14.749Z,85.05
2019-03-31T23:17:43.220Z,85.62
2019-03-31T23:20:11.726Z,85.85
2019-03-31T23:22:40.184Z,84.79
2019-03-31T23:25:08.754Z,85.02
2019-03-31T23:27:37.226Z,83.91
2019-03-31T23:30:09.008Z,83.86
2019-03-31T23:32:37.546Z,83.53
2019-03-31T23:35:07.385Z,83.53
2019-03-31T23:37:35.864Z,82.09
2019-03-31T23:40:05.001Z,82.09
2019-03-31T23:42:33.812Z,82.50
2019-03-31T23:45:02.377Z,80.41
2019-03-31T23:47:30.850Z,80.65
2019-03-31T23:49:59.349Z,81.36
2019-03-31T23:52:27.823Z,81.36
2019-03-31T23:54:56.322Z,80.61
2019-03-31T23:57:41.660Z,81.77
